Time;durP1;ratioP1;P1;durP2;ratioP2;P2;SDS_P1;SDS_P2;PMS_P1;PMS_P2;Temp;Humidity;BMP_temperature;BMP_pressure;BME280_temperature;BME280_humidity;BME280_pressure;Samples;Min_cycle;Max_cycle;Signal;HPM_P1;HPM_P2
2024/04/16 00:02:11;;;;;;;1.90;0.80;;;;;;;6.55;84.46;97155.72;5562419;25;20004;-62
2024/04/16 00:04:36;;;;;;;1.80;0.98;;;;;;;6.54;84.63;97157.56;5562265;25;20007;-63
2024/04/16 00:07:02;;;;;;;1.27;1.10;;;;;;;6.38;84.72;97150.72;5561729;25;20009;-63
2024/04/16 00:09:28;;;;;;;1.90;0.90;;;;;;;6.38;84.97;97150.72;5561703;25;20434;-62
2024/04/16 00:11:54;;;;;;;0.95;0.88;;;;;;;6.46;85.24;97171.25;5561524;25;19997;-61
2024/04/16 00:14:39;;;;;;;0.90;0.90;;;;;;;6.46;85.35;97171.25;5559020;25;20007;-63
2024/04/16 00:17:05;;;;;;;1.95;0.85;;;;;;;6.42;85.27;97172.84;5559900;25;20005;-63
2024/04/16 00:19:31;;;;;;;0.80;0.80;;;;;;;6.47;85.54;97185.19;5560166;25;20000;-62
2024/04/16 00:21:57;;;;;;;0.90;0.90;;;;;;;6.50;85.59;97189.94;5528778;25;20008;-63
2024/04/16 00:24:23;;;;;;;1.00;0.90;;;;;;;6.49;85.17;97193.63;5559906;25;20004;-62
2024/04/16 00:26:49;;;;;;;0.80;0.80;;;;;;;6.49;85.32;97186.53;5559623;25;20335;-62
2024/04/16 00:29:15;;;;;;;1.08;1.00;;;;;;;6.51;85.17;97194.16;5562145;25;19998;-63
2024/04/16 00:31:40;;;;;;;1.05;0.98;;;;;;;6.50;85.06;97189.94;5564968;25;19997;-63
2024/04/16 00:34:07;;;;;;;0.95;0.95;;;;;;;6.55;85.14;97195.19;5562842;25;20001;-61
2024/04/16 00:36:33;;;;;;;0.90;0.90;;;;;;;6.52;84.83;97187.84;5564717;25;20029;-62
2024/04/16 00:38:59;;;;;;;1.17;1.00;;;;;;;6.53;85.01;97202.56;5563644;25;19993;-63
2024/04/16 00:41:25;;;;;;;1.95;1.10;;;;;;;6.45;84.77;97198.63;5564685;25;20000;-62
2024/04/16 00:43:50;;;;;;;0.90;0.90;;;;;;;6.47;84.71;97206.25;5564747;25;20003;-63
2024/04/16 00:46:16;;;;;;;1.20;1.10;;;;;;;6.43;85.03;97203.38;5562807;25;20390;-63
2024/04/16 00:48:42;;;;;;;3.42;1.02;;;;;;;6.47;85.60;97198.38;5565137;25;20005;-62
2024/04/16 00:51:08;;;;;;;1.80;1.20;;;;;;;6.50;85.16;97205.72;5564905;25;20009;-63
2024/04/16 00:53:34;;;;;;;3.13;1.05;;;;;;;6.49;85.70;97206.78;5563059;25;20008;-62
2024/04/16 00:55:59;;;;;;;2.20;1.25;;;;;;;6.51;85.16;97209.97;5563017;25;20033;-62
2024/04/16 00:58:26;;;;;;;1.40;1.13;;;;;;;6.45;85.26;97203.13;5563178;25;20442;-63
2024/04/16 01:00:52;;;;;;;1.63;1.30;;;;;;;6.44;85.26;97207.59;5564694;25;20001;-62
2024/04/16 01:03:17;;;;;;;1.45;1.30;;;;;;;6.46;85.41;97213.38;5564357;25;19996;-63
2024/04/16 01:05:43;;;;;;;1.05;1.05;;;;;;;6.45;85.72;97213.66;5562624;25;20000;-63
2024/04/16 01:08:09;;;;;;;1.30;1.20;;;;;;;6.45;85.76;97221.53;5564612;25;20001;-62
2024/04/16 01:10:39;;;;;;;2.53;1.40;;;;;;;6.51;85.94;97226.53;5564434;25;20019;-62
2024/04/16 01:13:05;;;;;;;2.88;1.40;;;;;;;6.58;85.90;97221.00;5564879;25;20371;-63
2024/04/16 01:15:31;;;;;;;1.85;1.30;;;;;;;6.54;85.53;97222.59;5564255;25;20019;-62
2024/04/16 01:17:58;;;;;;;2.42;1.60;;;;;;;6.51;85.81;97210.75;5562786;25;19996;-62
2024/04/16 01:20:24;;;;;;;3.78;1.45;;;;;;;6.55;85.53;97218.91;5564412;25;20465;-63
2024/04/16 01:22:51;;;;;;;2.10;1.50;;;;;;;6.56;85.37;97221.28;5562936;25;19997;-64
2024/04/16 01:25:18;;;;;;;2.47;1.48;;;;;;;6.60;85.07;97214.41;5564068;25;20023;-63
2024/04/16 01:27:44;;;;;;;1.60;1.50;;;;;;;6.59;85.29;97212.84;5564551;25;20457;-63
2024/04/16 01:30:10;;;;;;;3.60;1.90;;;;;;;6.64;85.12;97219.16;5564098;25;20020;-63
2024/04/16 01:32:36;;;;;;;5.55;1.92;;;;;;;6.63;85.15;97217.59;5531499;25;20069;-63
2024/04/16 01:35:02;;;;;;;2.33;1.60;;;;;;;6.70;85.39;97221.50;5564101;25;19997;-63
2024/04/16 01:37:30;;;;;;;2.60;1.65;;;;;;;6.70;84.92;97218.88;5563990;25;19993;-63
2024/04/16 01:39:56;;;;;;;3.05;1.52;;;;;;;6.68;84.83;97222.84;5563603;25;19996;-63
2024/04/16 01:42:22;;;;;;;2.20;1.65;;;;;;;6.62;85.58;97221.25;5562542;25;20007;-63
2024/04/16 01:44:50;;;;;;;2.83;1.70;;;;;;;6.51;85.90;97228.38;5562265;25;20009;-63
2024/04/16 01:47:16;;;;;;;3.03;1.70;;;;;;;6.57;85.88;97228.09;5563939;25;20478;-62
2024/04/16 01:49:42;;;;;;;3.47;2.13;;;;;;;6.62;85.84;97229.16;5563813;25;19996;-62
2024/04/16 01:52:07;;;;;;;3.63;1.75;;;;;;;6.64;85.56;97232.31;5563785;25;19997;-63
2024/04/16 01:54:33;;;;;;;2.63;1.90;;;;;;;6.68;85.15;97233.38;5563896;25;20005;-62
2024/04/16 01:56:59;;;;;;;2.60;1.77;;;;;;;6.62;85.27;97237.03;5561649;25;19997;-62
2024/04/16 01:59:25;;;;;;;2.65;1.95;;;;;;;6.62;85.40;97245.75;5500089;25;20017;-63
2024/04/16 02:01:50;;;;;;;3.33;2.10;;;;;;;6.64;85.35;97242.84;5563439;25;20076;-63
2024/04/16 02:04:16;;;;;;;4.95;1.90;;;;;;;6.57;85.09;97246.53;5563755;25;20004;-62
2024/04/16 02:06:42;;;;;;;2.53;1.67;;;;;;;6.55;85.67;97250.47;5561787;25;20364;-64
2024/04/16 02:09:07;;;;;;;2.50;1.65;;;;;;;6.55;85.68;97250.47;5563611;25;20005;-64
2024/04/16 02:11:33;;;;;;;4.53;2.20;;;;;;;6.58;85.42;97250.75;5563256;25;19997;-63
2024/04/16 02:13:59;;;;;;;3.20;1.73;;;;;;;6.59;85.30;97248.91;5563644;25;20001;-63
2024/04/16 02:16:25;;;;;;;4.20;1.98;;;;;;;6.60;84.97;97250.50;5561537;25;20016;-63
2024/04/16 02:18:51;;;;;;;2.50;1.70;;;;;;;6.62;84.82;97269.44;5563323;25;19997;-63
2024/04/16 02:21:17;;;;;;;2.90;2.03;;;;;;;6.67;84.57;97261.53;5561631;25;20005;-62
2024/04/16 02:23:45;;;;;;;2.22;1.88;;;;;;;6.70;84.71;97262.84;5563728;25;19992;-63
2024/04/16 02:26:11;;;;;;;5.85;1.98;;;;;;;6.59;84.18;97257.59;5563803;25;20030;-63
2024/04/16 02:28:37;;;;;;;4.03;1.67;;;;;;;6.64;84.59;97262.06;5530420;25;19996;-63
2024/04/16 02:31:03;;;;;;;3.22;2.05;;;;;;;6.69;84.09;97266.53;5563218;25;19996;-63
2024/04/16 02:33:29;;;;;;;2.22;1.67;;;;;;;6.71;84.11;97267.09;5563353;25;20012;-62
2024/04/16 02:36:00;;;;;;;2.47;1.85;;;;;;;6.70;83.81;97273.38;5530082;25;20067;-64
2024/04/16 02:38:26;;;;;;;2.15;1.80;;;;;;;6.68;83.64;97275.50;5563387;25;19993;-63
2024/04/16 02:40:52;;;;;;;4.15;1.77;;;;;;;6.71;83.80;97272.34;5563066;25;20004;-64
2024/04/16 02:43:18;;;;;;;2.50;1.80;;;;;;;6.68;83.55;97262.34;5563334;25;20381;-61
2024/04/16 02:45:43;;;;;;;3.75;2.03;;;;;;;6.64;83.74;97275.22;5562270;25;20011;-63
2024/04/16 02:48:09;;;;;;;3.55;1.90;;;;;;;6.65;83.62;97273.38;5563041;25;20005;-62
2024/04/16 02:50:35;;;;;;;2.95;1.95;;;;;;;6.74;83.37;97287.63;5562490;25;19996;-62
2024/04/16 02:53:03;;;;;;;5.88;2.28;;;;;;;6.78;83.16;97288.66;5528820;25;20093;-63
2024/04/16 02:55:31;;;;;;;4.22;1.90;;;;;;;6.73;83.03;97292.06;5562790;25;20033;-63
2024/04/16 02:57:57;;;;;;;3.95;1.90;;;;;;;6.86;82.78;97301.31;5563290;25;20004;-63
2024/04/16 03:00:23;;;;;;;3.83;2.10;;;;;;;6.88;82.53;97301.81;5560824;25;20481;-62
2024/04/16 03:02:48;;;;;;;3.50;1.83;;;;;;;6.83;82.49;97302.63;5561362;25;20513;-62
2024/04/16 03:05:14;;;;;;;3.13;1.80;;;;;;;6.87;82.63;97312.63;5561156;25;20015;-63
2024/04/16 03:07:40;;;;;;;2.92;2.10;;;;;;;6.84;82.08;97316.56;5561322;25;20004;-64
2024/04/16 03:10:15;;;;;;;3.05;1.95;;;;;;;6.87;82.15;97321.31;5562465;25;20541;-62
2024/04/16 03:12:45;;;;;;;3.13;2.05;;;;;;;6.86;82.08;97319.75;5561255;25;19993;-64
2024/04/16 03:15:11;;;;;;;4.93;2.10;;;;;;;6.88;81.93;97317.59;5529109;25;20017;-62
2024/04/16 03:17:37;;;;;;;2.47;2.08;;;;;;;6.80;81.91;97318.16;5560645;25;20008;-62
2024/04/16 03:20:05;;;;;;;2.22;1.70;;;;;;;6.79;81.95;97325.28;5530053;25;20009;-63
2024/04/16 03:22:31;;;;;;;2.33;1.83;;;;;;;6.76;82.17;97317.09;5529680;25;20012;-62
2024/04/16 03:24:57;;;;;;;3.80;1.98;;;;;;;6.85;81.71;97327.88;5560492;25;20454;-62
2024/04/16 03:27:23;;;;;;;2.97;1.92;;;;;;;6.86;81.55;97327.63;5562791;25;19993;-63
2024/04/16 03:29:49;;;;;;;4.53;1.77;;;;;;;6.82;82.04;97330.00;5562551;25;19993;-62
2024/04/16 03:32:15;;;;;;;7.03;2.50;;;;;;;6.90;82.08;97335.78;5560968;25;20410;-64
2024/04/16 03:34:41;;;;;;;4.68;2.30;;;;;;;6.91;81.64;97332.91;5561955;25;19996;-63
2024/04/16 03:37:07;;;;;;;3.30;2.03;;;;;;;6.93;81.39;97328.16;5560151;25;20505;-65
2024/04/16 03:39:33;;;;;;;3.42;2.03;;;;;;;6.98;81.19;97337.91;5560267;25;20324;-63
2024/04/16 03:41:58;;;;;;;3.05;2.08;;;;;;;7.00;81.10;97341.88;5562039;25;20008;-63
2024/04/16 03:44:24;;;;;;;4.35;2.10;;;;;;;7.01;81.23;97342.66;5529542;25;19997;-63
2024/04/16 03:46:50;;;;;;;3.10;1.90;;;;;;;6.98;80.89;97353.72;5561063;25;20093;-64
2024/04/16 03:49:16;;;;;;;4.65;2.83;;;;;;;7.03;80.91;97353.72;5562171;25;19992;-64
2024/04/16 03:51:41;;;;;;;3.20;1.83;;;;;;;7.11;80.94;97347.91;5559933;25;20009;-64
2024/04/16 03:54:08;;;;;;;3.28;1.95;;;;;;;7.08;80.27;97353.69;5560192;25;19995;-63
2024/04/16 03:56:34;;;;;;;3.63;2.10;;;;;;;7.08;80.70;97360.81;5560171;25;20012;-64
2024/04/16 03:59:26;;;;;;;3.05;2.00;;;;;;;7.13;80.50;97369.50;5560333;25;19993;-62
2024/04/16 04:01:52;;;;;;;3.90;2.22;;;;;;;7.18;80.37;97368.72;5557794;25;20000;-63
2024/04/16 04:04:18;;;;;;;2.53;1.88;;;;;;;7.10;80.17;97377.94;5561831;25;20024;-63
2024/04/16 04:06:44;;;;;;;4.65;2.05;;;;;;;7.05;80.08;97389.25;5559826;25;20426;-64
2024/04/16 04:09:09;;;;;;;3.72;2.03;;;;;;;7.01;80.52;97390.84;5559729;25;20004;-62
2024/04/16 04:11:35;;;;;;;7.32;2.67;;;;;;;7.05;80.28;97397.16;5561658;25;20004;-64
2024/04/16 04:14:01;;;;;;;5.25;2.00;;;;;;;7.14;80.56;97394.78;5561782;25;19997;-63
2024/04/16 04:16:27;;;;;;;5.47;2.20;;;;;;;7.27;80.80;97398.75;5561631;25;20000;-62
2024/04/16 04:18:52;;;;;;;2.78;1.92;;;;;;;7.28;79.67;97400.34;5560013;25;20005;-63
2024/04/16 04:21:18;;;;;;;3.75;2.22;;;;;;;7.30;79.79;97406.16;5561298;25;20015;-62
2024/04/16 04:23:44;;;;;;;3.83;2.22;;;;;;;7.38;79.31;97410.88;5528840;25;19993;-63
2024/04/16 04:26:10;;;;;;;4.50;2.20;;;;;;;7.42;79.17;97413.78;5559633;25;19997;-61
2024/04/16 04:28:35;;;;;;;2.60;1.95;;;;;;;7.38;78.85;97400.34;5561455;25;19997;-62
2024/04/16 04:31:21;;;;;;;5.35;2.05;;;;;;;7.44;78.56;97403.75;5559583;25;20011;-63
2024/04/16 04:33:46;;;;;;;2.95;1.92;;;;;;;7.40;78.58;97413.25;5559807;25;19996;-63
2024/04/16 04:36:13;;;;;;;5.35;2.00;;;;;;;7.35;78.75;97411.38;5560920;25;19997;-62
2024/04/16 04:38:39;;;;;;;2.88;1.80;;;;;;;7.23;79.35;97410.88;5558077;25;20000;-62
2024/04/16 04:41:08;;;;;;;7.25;2.10;;;;;;;7.28;79.43;97409.03;5559771;25;20040;-61
2024/04/16 04:43:33;;;;;;;3.33;1.90;;;;;;;7.36;78.56;97415.63;5558819;25;20011;-63
2024/04/16 04:45:59;;;;;;;5.75;2.10;;;;;;;7.48;78.74;97416.16;5561026;25;19997;-66
2024/04/16 04:48:26;;;;;;;3.20;1.92;;;;;;;7.52;78.44;97413.75;5494383;25;20001;-62
2024/04/16 04:50:52;;;;;;;2.00;1.80;;;;;;;7.57;77.67;97403.22;5560709;25;20019;-63
2024/04/16 04:53:17;;;;;;;2.97;1.85;;;;;;;7.62;77.76;97411.13;5560955;25;20067;-62
2024/04/16 04:55:43;;;;;;;3.03;1.90;;;;;;;7.75;77.33;97404.50;5558662;25;20000;-63
2024/04/16 04:58:09;;;;;;;9.82;4.75;;;;;;;7.87;77.01;97412.91;5561037;25;19997;-63
2024/04/16 05:00:35;;;;;;;2.72;1.90;;;;;;;7.91;76.21;97406.06;5560835;25;20011;-61
2024/04/16 05:03:01;;;;;;;2.13;1.90;;;;;;;7.94;76.10;97400.25;5528086;25;19997;-62
2024/04/16 05:05:26;;;;;;;5.63;1.80;;;;;;;7.99;76.11;97398.63;5558887;25;20351;-61
2024/04/16 05:07:52;;;;;;;2.75;1.73;;;;;;;7.96;75.06;97400.75;5558925;25;20004;-63
2024/04/16 05:10:18;;;;;;;3.70;1.70;;;;;;;7.95;75.37;97401.03;5496531;25;20000;-61
2024/04/16 05:12:44;;;;;;;2.22;1.63;;;;;;;7.90;75.30;97404.44;5560242;25;20406;-63
2024/04/16 05:15:09;;;;;;;3.03;1.90;;;;;;;7.91;75.38;97408.69;5559032;25;20520;-63
2024/04/16 05:17:35;;;;;;;2.92;1.80;;;;;;;7.91;74.89;97407.88;5564124;25;20011;-63
2024/04/16 05:20:01;;;;;;;4.13;1.98;;;;;;;7.93;75.19;97418.97;5564094;25;20001;-63
2024/04/16 05:22:28;;;;;;;2.47;1.80;;;;;;;7.85;75.05;97409.75;5562210;25;20021;-64
2024/04/16 05:24:53;;;;;;;4.15;2.10;;;;;;;8.01;75.03;97421.06;5562254;25;19993;-64
2024/04/16 05:27:19;;;;;;;4.47;2.00;;;;;;;8.18;74.50;97410.97;5562711;25;20004;-63
2024/04/16 05:29:45;;;;;;;3.75;1.77;;;;;;;8.27;73.89;97421.75;5561969;25;20063;-62
2024/04/16 05:32:13;;;;;;;2.35;2.00;;;;;;;8.30;72.82;97423.06;5563964;25;19997;-64
2024/04/16 05:34:39;;;;;;;2.10;1.92;;;;;;;8.28;73.23;97420.69;5561401;25;20407;-64
2024/04/16 05:37:05;;;;;;;4.93;1.98;;;;;;;8.24;72.73;97422.31;5561679;25;19997;-61
2024/04/16 05:39:31;;;;;;;2.80;2.10;;;;;;;8.27;72.94;97423.63;5562192;25;20001;-63
2024/04/16 05:41:57;;;;;;;3.08;2.08;;;;;;;8.26;72.28;97428.09;5563640;25;20477;-63
2024/04/16 05:44:23;;;;;;;2.92;1.50;;;;;;;8.29;72.34;97432.03;5561740;25;19997;-62
2024/04/16 05:46:49;;;;;;;4.80;2.00;;;;;;;8.34;71.83;97437.31;5563729;25;20012;-62
2024/04/16 05:49:14;;;;;;;2.63;1.67;;;;;;;8.35;71.61;97444.97;5563885;25;19997;-63
2024/04/16 05:51:41;;;;;;;5.63;1.85;;;;;;;8.40;71.41;97452.09;5563274;25;20007;-63
2024/04/16 05:54:06;;;;;;;3.03;1.65;;;;;;;8.38;70.39;97447.09;5563914;25;20526;-63
2024/04/16 05:56:36;;;;;;;1.75;1.40;;;;;;;8.46;71.10;97453.66;5563584;25;20004;-62
2024/04/16 05:59:03;;;;;;;1.52;1.42;;;;;;;8.43;70.03;97453.41;5563624;25;20536;-62
2024/04/16 06:01:29;;;;;;;1.80;1.50;;;;;;;8.37;70.38;97445.47;5561217;25;20016;-62
2024/04/16 06:03:55;;;;;;;1.92;1.70;;;;;;;8.40;70.29;97449.44;5560848;25;20155;-59
2024/04/16 06:06:20;;;;;;;3.10;1.60;;;;;;;8.37;69.33;97458.66;5561286;25;20508;-60
2024/04/16 06:08:46;;;;;;;2.70;1.60;;;;;;;8.41;69.64;97449.19;5563432;25;20318;-60
2024/04/16 06:11:12;;;;;;;2.50;1.27;;;;;;;8.41;69.25;97451.84;5533436;25;20517;-60
2024/04/16 06:13:39;;;;;;;2.60;1.77;;;;;;;8.32;68.62;97455.25;5525459;25;20440;-59
2024/04/16 06:16:05;;;;;;;1.35;1.25;;;;;;;8.28;68.79;97460.28;5550996;25;20008;-58
2024/04/16 06:18:30;;;;;;;1.67;1.58;;;;;;;8.32;69.52;97468.44;5563341;25;20460;-60
2024/04/16 06:20:56;;;;;;;2.55;1.40;;;;;;;8.44;69.07;97463.69;5562874;25;19997;-59
2024/04/16 06:23:22;;;;;;;1.60;1.50;;;;;;;8.50;68.59;97470.56;5563306;25;20093;-59
2024/04/16 06:25:48;;;;;;;3.78;2.13;;;;;;;8.51;67.67;97471.34;5560949;25;20009;-59
2024/04/16 06:28:14;;;;;;;2.58;1.55;;;;;;;8.53;67.60;97471.84;5528681;25;19997;-59
2024/04/16 06:30:41;;;;;;;2.00;1.40;;;;;;;8.44;67.38;97470.81;5560690;25;20011;-60
2024/04/16 06:33:06;;;;;;;3.05;1.48;;;;;;;8.31;67.09;97478.22;5561544;25;20339;-61
2024/04/16 06:35:32;;;;;;;1.58;1.30;;;;;;;8.32;67.30;97479.00;5545666;25;20017;-61
2024/04/16 06:37:58;;;;;;;3.97;1.45;;;;;;;8.23;66.69;97484.06;5523922;26;20008;-59
2024/04/16 06:40:24;;;;;;;5.40;2.00;;;;;;;8.19;67.50;97475.88;5524927;25;20466;-60
2024/04/16 06:42:54;;;;;;;2.80;1.73;;;;;;;8.32;67.46;97492.22;5524909;25;19997;-60
2024/04/16 06:45:20;;;;;;;;;;;;;;;8.48;66.97;97498.28;5523663;25;20370;-58
2024/04/16 06:47:46;;;;;;;4.05;1.73;;;;;;;8.33;66.58;97481.41;5523827;26;19923;-59
2024/04/16 06:50:12;;;;;;;1.73;1.48;;;;;;;8.38;65.74;97501.69;5534610;25;20426;-60
2024/04/16 06:52:37;;;;;;;3.00;1.70;;;;;;;8.36;65.66;97498.56;5562779;25;19992;-61
2024/04/16 06:55:36;;;;;;;1.88;1.42;;;;;;;8.38;65.22;97504.34;5561647;25;20014;-59
2024/04/16 06:58:03;;;;;;;1.60;1.43;;;;;;;8.41;65.16;97512.56;5517116;25;20017;-61
2024/04/16 07:00:30;;;;;;;1.60;1.50;;;;;;;8.43;65.48;97511.50;5520374;25;20242;-60
2024/04/16 07:02:56;;;;;;;2.75;1.90;;;;;;;8.38;64.54;97505.19;5524075;25;20030;-59
2024/04/16 07:05:22;;;;;;;2.17;1.58;;;;;;;8.46;64.96;97513.59;5462666;26;20356;-60
2024/04/16 07:07:48;;;;;;;2.60;1.70;;;;;;;8.45;65.08;97504.09;5499265;26;20458;-61
2024/04/16 07:10:14;;;;;;;3.10;2.80;;;;;;;8.39;65.29;97505.97;5525135;25;20074;-61
2024/04/16 07:12:40;;;;;;;3.78;1.70;;;;;;;8.34;64.72;97516.50;5529768;25;20440;-60
2024/04/16 07:15:06;;;;;;;2.95;1.48;;;;;;;8.43;64.36;97509.63;5560568;25;20029;-60
2024/04/16 07:17:32;;;;;;;1.35;1.25;;;;;;;8.43;63.37;97503.56;5529321;25;20004;-60
2024/04/16 07:19:58;;;;;;;2.10;1.23;;;;;;;8.55;62.76;97511.97;5560228;25;20100;-60
2024/04/16 07:22:24;;;;;;;2.75;1.42;;;;;;;8.60;63.22;97523.31;5553249;25;20013;-60
2024/04/16 07:24:50;;;;;;;1.65;1.40;;;;;;;8.64;62.31;97531.47;5524637;25;20033;-60
2024/04/16 07:27:16;;;;;;;1.48;1.38;;;;;;;8.66;62.21;97534.66;5527657;25;20465;-61
2024/04/16 07:29:42;;;;;;;2.10;1.60;;;;;;;8.74;61.97;97539.38;5529110;25;20008;-59
2024/04/16 07:32:08;;;;;;;2.75;1.38;;;;;;;8.83;62.21;97550.97;5558302;25;20004;-59
2024/04/16 07:34:34;;;;;;;3.90;1.40;;;;;;;8.85;61.57;97548.84;5524404;25;20013;-59
2024/04/16 07:37:00;;;;;;;1.98;1.50;;;;;;;8.85;61.71;97559.41;5524798;25;20361;-60
2024/04/16 07:39:26;;;;;;;1.70;1.30;;;;;;;8.88;61.43;97560.69;5559718;25;20004;-59
2024/04/16 07:41:52;;;;;;;12.32;6.25;;;;;;;9.04;61.63;97562.22;5561544;25;20016;-60
2024/04/16 07:44:19;;;;;;;4.82;1.70;;;;;;;9.32;61.09;97558.13;5561631;25;20005;-59
2024/04/16 07:46:46;;;;;;;3.70;1.80;;;;;;;9.63;60.20;97573.00;5559647;25;20001;-60
2024/04/16 07:49:12;;;;;;;1.67;1.27;;;;;;;9.85;59.66;97561.97;5527195;25;20012;-59
2024/04/16 07:51:38;;;;;;;1.40;1.30;;;;;;;10.18;59.06;97569.13;5546104;25;20012;-59
2024/04/16 07:54:04;;;;;;;4.35;1.50;;;;;;;10.44;58.24;97572.34;5561774;25;20347;-60
2024/04/16 07:56:30;;;;;;;2.92;1.17;;;;;;;10.54;56.53;97566.16;5560061;25;20477;-59
2024/04/16 07:58:56;;;;;;;1.40;1.27;;;;;;;10.52;55.48;97549.75;5529460;25;20466;-60
2024/04/16 08:01:21;;;;;;;2.92;1.38;;;;;;;10.60;56.08;97553.63;5523092;26;20349;-60
2024/04/16 08:03:47;;;;;;;2.80;1.35;;;;;;;10.62;56.30;97551.50;5553457;25;19997;-58
2024/04/16 08:06:13;;;;;;;1.30;1.20;;;;;;;10.55;55.83;97557.13;5560915;25;20005;-59
2024/04/16 08:08:39;;;;;;;2.10;1.40;;;;;;;10.78;55.72;97546.81;5536007;25;20033;-59
2024/04/16 08:11:12;;;;;;;2.20;1.38;;;;;;;10.78;55.84;97557.41;5522611;26;20005;-62
2024/04/16 08:13:39;;;;;;;2.00;1.30;;;;;;;11.11;55.69;97545.84;5550375;25;20000;-62
2024/04/16 08:16:05;;;;;;;1.92;1.65;;;;;;;11.46;54.73;97541.13;5561238;25;20001;-60
2024/04/16 08:18:31;;;;;;;2.30;1.50;;;;;;;11.48;54.50;97546.16;5560872;25;20012;-62
2024/04/16 08:20:56;;;;;;;1.85;1.30;;;;;;;11.42;52.66;97542.00;5556507;25;19997;-62
2024/04/16 08:23:22;;;;;;;4.40;1.80;;;;;;;11.33;52.83;97536.56;5535676;25;20386;-63
2024/04/16 08:26:02;;;;;;;1.45;1.20;;;;;;;11.40;53.37;97542.28;5518567;26;20001;-62
2024/04/16 08:28:30;;;;;;;2.55;1.40;;;;;;;11.42;53.07;97537.47;5520310;25;20001;-61
2024/04/16 08:30:57;;;;;;;2.25;1.38;;;;;;;11.46;54.43;97540.34;5520234;25;19997;-63
2024/04/16 08:33:23;;;;;;;1.45;1.35;;;;;;;11.49;53.38;97539.75;5517939;25;20012;-61
2024/04/16 08:35:49;;;;;;;1.20;1.10;;;;;;;11.21;52.72;97536.19;5521396;25;20006;-62
2024/04/16 08:38:15;;;;;;;1.83;1.40;;;;;;;11.25;52.53;97543.28;5521328;25;20074;-65
2024/04/16 08:40:41;;;;;;;1.92;1.40;;;;;;;11.29;52.10;97549.59;5523303;25;20008;-63
2024/04/16 08:43:08;;;;;;;1.52;1.35;;;;;;;11.36;51.83;97539.41;5522982;25;20009;-62
2024/04/16 08:45:34;;;;;;;1.35;1.25;;;;;;;11.32;52.73;97533.13;5520967;26;20001;-63
2024/04/16 08:48:01;;;;;;;3.42;1.48;;;;;;;11.44;52.58;97530.03;5521046;25;20078;-62
2024/04/16 08:50:27;;;;;;;2.22;1.40;;;;;;;11.41;50.62;97527.94;5496446;25;20020;-62
2024/04/16 08:52:57;;;;;;;2.28;1.25;;;;;;;11.28;51.45;97531.31;5559530;25;20381;-63
2024/04/16 08:55:25;;;;;;;1.83;1.40;;;;;;;11.30;51.87;97532.63;5528150;25;20012;-60
2024/04/16 08:57:53;;;;;;;2.95;1.50;;;;;;;11.47;53.07;97529.47;5562000;25;20012;-60
2024/04/16 09:00:20;;;;;;;6.05;1.73;;;;;;;11.61;51.67;97534.81;5563670;25;20076;-60
2024/04/16 09:02:46;;;;;;;3.45;1.77;;;;;;;11.65;52.31;97514.59;5518544;26;20010;-61
2024/04/16 09:05:12;;;;;;;1.98;1.50;;;;;;;11.79;52.18;97531.34;5555800;25;20350;-62
2024/04/16 09:07:41;;;;;;;1.83;1.45;;;;;;;11.76;51.89;97536.44;5524443;25;20001;-63
2024/04/16 09:10:23;;;;;;;1.48;1.38;;;;;;;11.73;51.89;97553.72;5525975;25;19997;-61
2024/04/16 09:12:50;;;;;;;2.40;1.45;;;;;;;11.64;51.26;97544.06;5508347;25;19999;-60
2024/04/16 09:15:17;;;;;;;2.33;1.70;;;;;;;11.70;52.69;97545.56;5562331;25;20007;-61
2024/04/16 09:17:54;;;;;;;5.03;1.77;;;;;;;11.95;51.79;97544.41;5550389;25;20009;-61
2024/04/16 09:20:21;;;;;;;2.13;1.60;;;;;;;12.23;51.45;97551.31;5526493;25;20469;-61
2024/04/16 09:22:51;;;;;;;4.22;1.60;;;;;;;12.27;50.60;97555.00;5537521;25;20026;-61
2024/04/16 09:25:18;;;;;;;4.47;1.50;;;;;;;12.38;51.99;97554.78;5562139;25;20340;-60
2024/04/16 09:27:50;;;;;;;2.65;1.85;;;;;;;12.50;51.06;97550.59;5551042;25;20012;-59
2024/04/16 09:30:16;;;;;;;2.08;1.45;;;;;;;12.60;49.64;97552.25;5463849;26;20003;-59
2024/04/16 09:32:47;;;;;;;1.52;1.30;;;;;;;12.55;49.73;97549.69;5526546;25;20004;-60
2024/04/16 09:35:19;;;;;;;2.38;1.58;;;;;;;12.46;50.15;97552.25;5526495;25;19997;-59
2024/04/16 09:37:45;;;;;;;2.88;1.55;;;;;;;12.45;49.05;97553.34;5526166;25;20005;-59
2024/04/16 09:40:13;;;;;;;2.42;1.45;;;;;;;12.56;49.06;97548.63;5524434;26;20001;-59
2024/04/16 09:42:39;;;;;;;2.92;1.48;;;;;;;12.59;48.41;97549.88;5534647;25;20000;-60
2024/04/16 09:45:06;;;;;;;2.80;1.50;;;;;;;12.72;48.88;97555.22;5561658;25;20283;-61
2024/04/16 09:47:32;;;;;;;2.03;1.50;;;;;;;12.71;48.87;97552.88;5521600;26;20037;-60
2024/04/16 09:49:58;;;;;;;1.40;1.30;;;;;;;12.60;49.29;97556.78;5493789;26;20339;-61
2024/04/16 09:52:25;;;;;;;2.95;1.60;;;;;;;12.50;49.35;97557.78;5552289;25;20001;-59
2024/04/16 09:54:51;;;;;;;2.22;1.60;;;;;;;12.47;48.92;97559.16;5526272;25;20002;-58
2024/04/16 09:57:19;;;;;;;2.47;1.70;;;;;;;12.57;48.79;97568.81;5525716;25;20053;-59
2024/04/16 09:59:50;;;;;;;1.65;1.50;;;;;;;12.54;49.49;97564.06;5524127;26;20323;-60
2024/04/16 10:02:16;;;;;;;1.73;1.52;;;;;;;12.62;48.83;97563.41;5523938;25;20078;-61
2024/04/16 10:04:42;;;;;;;3.00;1.60;;;;;;;12.79;48.56;97569.97;5524271;26;20004;-63
2024/04/16 10:07:08;;;;;;;3.45;1.50;;;;;;;12.84;47.23;97569.88;5526842;25;19998;-60
2024/04/16 10:09:34;;;;;;;1.83;1.30;;;;;;;12.89;47.09;97570.56;5561434;25;20004;-60
2024/04/16 10:12:00;;;;;;;2.17;1.65;;;;;;;12.92;46.85;97567.31;5529297;25;20000;-61
2024/04/16 10:14:29;;;;;;;1.60;1.50;;;;;;;12.81;46.64;97576.59;5524421;25;20048;-60
2024/04/16 10:16:55;;;;;;;2.65;1.50;;;;;;;12.75;47.25;97580.44;5523515;26;20025;-62
2024/04/16 10:19:21;;;;;;;2.58;1.73;;;;;;;12.85;47.25;97574.94;5560478;25;20380;-62
2024/04/16 10:21:48;;;;;;;2.40;1.50;;;;;;;13.05;46.16;97584.34;5561289;25;20008;-62
2024/04/16 10:24:19;;;;;;;3.42;1.50;;;;;;;13.35;46.27;97590.16;5561002;25;20037;-62
2024/04/16 10:26:47;;;;;;;3.17;1.52;;;;;;;13.45;45.73;97591.81;5561275;25;20346;-63
2024/04/16 10:29:26;;;;;;;4.63;1.60;;;;;;;13.27;45.57;97586.34;5528030;25;20011;-62
2024/04/16 10:31:53;;;;;;;1.98;1.55;;;;;;;13.36;46.02;97595.19;5523688;26;20016;-63
2024/04/16 10:34:24;;;;;;;4.85;1.70;;;;;;;13.43;45.13;97591.31;5492983;26;20019;-62
2024/04/16 10:36:51;;;;;;;3.28;1.60;;;;;;;13.45;45.58;97592.59;5525231;25;20002;-62
2024/04/16 10:39:17;;;;;;;3.42;1.70;;;;;;;13.38;45.48;97597.53;5525154;25;20012;-62
2024/04/16 10:41:57;;;;;;;4.35;1.88;;;;;;;13.19;44.68;97592.31;5525523;25;19997;-61
2024/04/16 10:44:23;;;;;;;3.65;1.60;;;;;;;13.15;46.15;97586.03;5525847;25;20070;-62
2024/04/16 10:46:50;;;;;;;5.75;1.95;;;;;;;13.19;45.66;97593.09;5525096;25;20001;-60
2024/04/16 10:49:17;;;;;;;5.85;2.10;;;;;;;13.27;45.49;97596.97;5526461;25;20104;-61
2024/04/16 10:51:44;;;;;;;2.28;1.50;;;;;;;13.25;43.72;97590.34;5550208;25;20008;-63
2024/04/16 10:54:11;;;;;;;2.70;1.60;;;;;;;13.24;43.83;97586.91;5528366;25;20017;-62
2024/04/16 10:56:41;;;;;;;1.77;1.52;;;;;;;13.19;44.09;97587.78;5525235;25;20007;-63
2024/04/16 10:59:07;;;;;;;1.63;1.50;;;;;;;13.16;42.78;97598.22;5525194;25;20005;-62
2024/04/16 11:01:33;;;;;;;3.30;1.60;;;;;;;13.03;42.65;97583.06;5523241;26;20005;-60
2024/04/16 11:04:25;;;;;;;4.25;1.92;;;;;;;12.99;43.22;97582.09;5525164;25;20001;-61
2024/04/16 11:06:51;;;;;;;3.20;1.60;;;;;;;13.16;43.92;97583.06;5458580;26;20362;-61
2024/04/16 11:09:18;;;;;;;3.22;1.50;;;;;;;13.46;43.00;97578.19;5560147;25;20020;-62
2024/04/16 11:11:44;;;;;;;3.67;1.30;;;;;;;13.67;43.13;97588.38;5560588;25;20004;-62
2024/04/16 11:14:10;;;;;;;1.40;1.30;;;;;;;13.56;41.80;97593.16;5525119;25;20001;-61
2024/04/16 11:16:36;;;;;;;1.88;1.20;;;;;;;13.59;42.56;97592.56;5524895;25;20034;-62
2024/04/16 11:19:02;;;;;;;2.08;1.40;;;;;;;13.72;41.84;97589.06;5555060;25;20001;-62
2024/04/16 11:21:31;;;;;;;2.92;1.63;;;;;;;13.95;42.22;97586.41;5562147;25;19996;-62
2024/04/16 11:23:57;;;;;;;2.13;1.35;;;;;;;14.02;41.38;97582.22;5560138;25;19996;-61
2024/04/16 11:26:23;;;;;;;3.20;1.65;;;;;;;14.08;40.94;97582.88;5560123;25;20008;-62
2024/04/16 11:28:50;;;;;;;1.27;1.10;;;;;;;14.11;41.06;97586.81;5533495;25;20004;-62
2024/04/16 11:31:17;;;;;;;2.28;1.30;;;;;;;14.14;40.73;97589.66;5492521;26;20473;-61
2024/04/16 11:33:44;;;;;;;1.58;1.20;;;;;;;14.24;40.31;97577.97;5551858;25;20008;-62
2024/04/16 11:36:10;;;;;;;4.85;3.42;;;;;;;14.26;40.07;97592.56;5560043;25;20000;-63
2024/04/16 11:38:39;;;;;;;2.10;1.00;;;;;;;14.35;38.39;97603.25;5560146;25;20700;-61